Terminal Aerodrome Forecast
Issued by NWS

Home | Current Version | Previous Version | Text Only | Print | Product List | Glossary On
Versions: 1 2 3 4 5 6 7 8 9 10 11 12 13 14 15 16 17
000
FTUS43 KGRB 261700
TAFATW
TAF
KATW 261739Z 2618/2718 29009KT P6SM SCT040 BKN090
     FM270200 32003KT P6SM SCT100
     FM270700 03003KT P6SM SCT040 BKN120
     FM271300 04006KT P6SM BKN035=

USA.gov is the U.S. government's official web portal to all federal, state and local government web resources and services.